sensor_id;sensor_type;location;lat;lon;timestamp;P1;durP1;ratioP1;P2;durP2;ratioP2
30185;SDS011;31152;49.190;8.122;2023-08-31T00:00:54;5.95;;;2.83;;
30185;SDS011;31152;49.190;8.122;2023-08-31T00:03:21;4.95;;;2.97;;
30185;SDS011;31152;49.190;8.122;2023-08-31T00:05:48;5.28;;;2.85;;
30185;SDS011;31152;49.190;8.122;2023-08-31T00:08:17;7.00;;;3.38;;
30185;SDS011;31152;49.190;8.122;2023-08-31T00:10:46;4.85;;;3.20;;
30185;SDS011;31152;49.190;8.122;2023-08-31T00:13:21;6.30;;;3.20;;
30185;SDS011;31152;49.190;8.122;2023-08-31T00:15:50;8.15;;;2.97;;
30185;SDS011;31152;49.190;8.122;2023-08-31T00:18:17;6.53;;;3.60;;
30185;SDS011;31152;49.190;8.122;2023-08-31T00:20:44;4.80;;;3.28;;
30185;SDS011;31152;49.190;8.122;2023-08-31T00:23:11;9.40;;;3.80;;
30185;SDS011;31152;49.190;8.122;2023-08-31T00:25:38;6.20;;;3.78;;
30185;SDS011;31152;49.190;8.122;2023-08-31T00:28:05;11.65;;;4.15;;
30185;SDS011;31152;49.190;8.122;2023-08-31T00:30:31;5.50;;;3.63;;
30185;SDS011;31152;49.190;8.122;2023-08-31T00:33:01;8.55;;;4.22;;
30185;SDS011;31152;49.190;8.122;2023-08-31T00:35:27;6.40;;;3.80;;
30185;SDS011;31152;49.190;8.122;2023-08-31T00:37:55;5.22;;;4.28;;
30185;SDS011;31152;49.190;8.122;2023-08-31T00:40:25;6.40;;;4.40;;
30185;SDS011;31152;49.190;8.122;2023-08-31T00:42:52;9.80;;;4.75;;
30185;SDS011;31152;49.190;8.122;2023-08-31T00:45:21;9.23;;;4.75;;
30185;SDS011;31152;49.190;8.122;2023-08-31T00:47:48;6.85;;;4.50;;
30185;SDS011;31152;49.190;8.122;2023-08-31T00:50:16;7.85;;;4.20;;
30185;SDS011;31152;49.190;8.122;2023-08-31T00:52:43;8.43;;;4.18;;
30185;SDS011;31152;49.190;8.122;2023-08-31T00:55:14;6.68;;;4.32;;
30185;SDS011;31152;49.190;8.122;2023-08-31T00:57:44;7.05;;;4.45;;
30185;SDS011;31152;49.190;8.122;2023-08-31T01:00:11;5.53;;;4.18;;
30185;SDS011;31152;49.190;8.122;2023-08-31T01:02:43;8.23;;;4.28;;
30185;SDS011;31152;49.190;8.122;2023-08-31T01:08:12;10.40;;;4.50;;
30185;SDS011;31152;49.190;8.122;2023-08-31T01:10:45;7.07;;;4.30;;
30185;SDS011;31152;49.190;8.122;2023-08-31T01:13:31;10.23;;;4.28;;
30185;SDS011;31152;49.190;8.122;2023-08-31T01:16:00;9.20;;;4.22;;
30185;SDS011;31152;49.190;8.122;2023-08-31T01:18:29;6.53;;;4.05;;
30185;SDS011;31152;49.190;8.122;2023-08-31T01:21:08;10.90;;;3.95;;
30185;SDS011;31152;49.190;8.122;2023-08-31T01:23:55;7.93;;;3.80;;
30185;SDS011;31152;49.190;8.122;2023-08-31T01:26:23;8.30;;;3.65;;
30185;SDS011;31152;49.190;8.122;2023-08-31T01:28:53;9.25;;;3.83;;
30185;SDS011;31152;49.190;8.122;2023-08-31T01:31:21;7.70;;;3.80;;
30185;SDS011;31152;49.190;8.122;2023-08-31T01:33:48;7.15;;;3.53;;
30185;SDS011;31152;49.190;8.122;2023-08-31T01:36:28;6.60;;;3.25;;
30185;SDS011;31152;49.190;8.122;2023-08-31T01:39:17;7.63;;;3.05;;
30185;SDS011;31152;49.190;8.122;2023-08-31T01:41:58;4.72;;;2.83;;
30185;SDS011;31152;49.190;8.122;2023-08-31T01:44:30;4.68;;;3.05;;
30185;SDS011;31152;49.190;8.122;2023-08-31T01:47:02;5.72;;;3.30;;
30185;SDS011;31152;49.190;8.122;2023-08-31T01:49:38;7.03;;;3.10;;
30185;SDS011;31152;49.190;8.122;2023-08-31T01:52:05;5.55;;;3.08;;
30185;SDS011;31152;49.190;8.122;2023-08-31T01:54:33;5.82;;;2.72;;
30185;SDS011;31152;49.190;8.122;2023-08-31T01:57:03;9.93;;;2.97;;
30185;SDS011;31152;49.190;8.122;2023-08-31T01:59:33;9.38;;;3.35;;
30185;SDS011;31152;49.190;8.122;2023-08-31T02:02:01;6.95;;;3.38;;
30185;SDS011;31152;49.190;8.122;2023-08-31T02:04:28;7.13;;;2.63;;
30185;SDS011;31152;49.190;8.122;2023-08-31T02:06:55;4.03;;;2.88;;
30185;SDS011;31152;49.190;8.122;2023-08-31T02:09:26;5.38;;;2.90;;
30185;SDS011;31152;49.190;8.122;2023-08-31T02:11:53;7.93;;;2.90;;
30185;SDS011;31152;49.190;8.122;2023-08-31T02:14:20;6.57;;;3.30;;
30185;SDS011;31152;49.190;8.122;2023-08-31T02:16:46;6.43;;;2.70;;
30185;SDS011;31152;49.190;8.122;2023-08-31T02:19:13;6.57;;;2.80;;
30185;SDS011;31152;49.190;8.122;2023-08-31T02:21:40;8.18;;;2.83;;
30185;SDS011;31152;49.190;8.122;2023-08-31T02:24:07;10.15;;;2.95;;
30185;SDS011;31152;49.190;8.122;2023-08-31T02:26:34;4.40;;;2.13;;
30185;SDS011;31152;49.190;8.122;2023-08-31T02:29:02;4.70;;;2.50;;
30185;SDS011;31152;49.190;8.122;2023-08-31T02:31:29;7.55;;;2.78;;
30185;SDS011;31152;49.190;8.122;2023-08-31T02:33:56;6.72;;;2.50;;
30185;SDS011;31152;49.190;8.122;2023-08-31T02:36:25;7.85;;;3.08;;
30185;SDS011;31152;49.190;8.122;2023-08-31T02:38:52;5.20;;;2.17;;
30185;SDS011;31152;49.190;8.122;2023-08-31T02:41:21;6.03;;;2.33;;
30185;SDS011;31152;49.190;8.122;2023-08-31T02:43:51;7.32;;;2.35;;
30185;SDS011;31152;49.190;8.122;2023-08-31T02:46:18;6.15;;;2.30;;
30185;SDS011;31152;49.190;8.122;2023-08-31T02:48:47;5.47;;;2.53;;
30185;SDS011;31152;49.190;8.122;2023-08-31T02:51:16;5.32;;;2.50;;
30185;SDS011;31152;49.190;8.122;2023-08-31T02:53:42;7.45;;;2.65;;
30185;SDS011;31152;49.190;8.122;2023-08-31T02:56:09;7.38;;;2.55;;
30185;SDS011;31152;49.190;8.122;2023-08-31T02:58:38;3.75;;;2.17;;
30185;SDS011;31152;49.190;8.122;2023-08-31T03:01:14;8.40;;;3.03;;
30185;SDS011;31152;49.190;8.122;2023-08-31T03:03:43;5.97;;;2.20;;
30185;SDS011;31152;49.190;8.122;2023-08-31T03:06:12;5.68;;;2.28;;
30185;SDS011;31152;49.190;8.122;2023-08-31T03:08:39;6.05;;;2.42;;
30185;SDS011;31152;49.190;8.122;2023-08-31T03:11:06;9.75;;;2.58;;
30185;SDS011;31152;49.190;8.122;2023-08-31T03:13:33;6.97;;;2.63;;
30185;SDS011;31152;49.190;8.122;2023-08-31T03:16:02;7.70;;;2.53;;
30185;SDS011;31152;49.190;8.122;2023-08-31T03:18:29;3.55;;;2.40;;
30185;SDS011;31152;49.190;8.122;2023-08-31T03:20:56;7.68;;;2.60;;
30185;SDS011;31152;49.190;8.122;2023-08-31T03:23:23;5.97;;;2.00;;
30185;SDS011;31152;49.190;8.122;2023-08-31T03:25:52;7.00;;;2.20;;
30185;SDS011;31152;49.190;8.122;2023-08-31T03:28:22;7.90;;;2.38;;
30185;SDS011;31152;49.190;8.122;2023-08-31T03:30:55;7.20;;;2.30;;
30185;SDS011;31152;49.190;8.122;2023-08-31T03:33:25;3.15;;;2.03;;
30185;SDS011;31152;49.190;8.122;2023-08-31T03:35:53;12.75;;;2.95;;
30185;SDS011;31152;49.190;8.122;2023-08-31T03:38:20;6.10;;;2.70;;
30185;SDS011;31152;49.190;8.122;2023-08-31T03:40:54;6.50;;;2.50;;
30185;SDS011;31152;49.190;8.122;2023-08-31T03:43:21;7.65;;;2.45;;
30185;SDS011;31152;49.190;8.122;2023-08-31T03:45:53;4.93;;;2.42;;
30185;SDS011;31152;49.190;8.122;2023-08-31T03:48:22;10.63;;;2.78;;
30185;SDS011;31152;49.190;8.122;2023-08-31T03:50:53;10.63;;;2.45;;
30185;SDS011;31152;49.190;8.122;2023-08-31T03:53:20;7.03;;;2.28;;
30185;SDS011;31152;49.190;8.122;2023-08-31T03:55:47;8.07;;;2.30;;
30185;SDS011;31152;49.190;8.122;2023-08-31T03:58:14;8.82;;;2.70;;
30185;SDS011;31152;49.190;8.122;2023-08-31T04:00:48;7.88;;;2.40;;
30185;SDS011;31152;49.190;8.122;2023-08-31T04:03:16;6.43;;;2.15;;
30185;SDS011;31152;49.190;8.122;2023-08-31T04:05:43;14.85;;;2.72;;
30185;SDS011;31152;49.190;8.122;2023-08-31T04:08:09;10.30;;;2.72;;
30185;SDS011;31152;49.190;8.122;2023-08-31T04:10:36;10.30;;;3.35;;
30185;SDS011;31152;49.190;8.122;2023-08-31T04:13:03;7.90;;;2.67;;
30185;SDS011;31152;49.190;8.122;2023-08-31T04:15:30;8.90;;;2.53;;
30185;SDS011;31152;49.190;8.122;2023-08-31T04:17:58;9.80;;;3.10;;
30185;SDS011;31152;49.190;8.122;2023-08-31T04:20:25;7.13;;;2.53;;
30185;SDS011;31152;49.190;8.122;2023-08-31T04:22:54;7.53;;;2.40;;
30185;SDS011;31152;49.190;8.122;2023-08-31T04:25:24;5.07;;;2.50;;
30185;SDS011;31152;49.190;8.122;2023-08-31T04:27:51;6.75;;;2.28;;
30185;SDS011;31152;49.190;8.122;2023-08-31T04:30:18;8.20;;;2.63;;
30185;SDS011;31152;49.190;8.122;2023-08-31T04:32:45;10.15;;;2.90;;
30185;SDS011;31152;49.190;8.122;2023-08-31T04:35:14;6.90;;;2.83;;
30185;SDS011;31152;49.190;8.122;2023-08-31T04:37:42;5.82;;;2.65;;
30185;SDS011;31152;49.190;8.122;2023-08-31T04:40:11;7.82;;;2.60;;
30185;SDS011;31152;49.190;8.122;2023-08-31T04:42:38;5.85;;;2.80;;
30185;SDS011;31152;49.190;8.122;2023-08-31T04:45:06;6.78;;;3.00;;
30185;SDS011;31152;49.190;8.122;2023-08-31T04:47:33;5.43;;;3.10;;
30185;SDS011;31152;49.190;8.122;2023-08-31T04:50:00;6.63;;;2.88;;
30185;SDS011;31152;49.190;8.122;2023-08-31T04:52:27;3.80;;;2.30;;
30185;SDS011;31152;49.190;8.122;2023-08-31T04:54:54;10.57;;;4.00;;
30185;SDS011;31152;49.190;8.122;2023-08-31T04:57:23;5.78;;;2.67;;
30185;SDS011;31152;49.190;8.122;2023-08-31T04:59:52;7.78;;;2.45;;
30185;SDS011;31152;49.190;8.122;2023-08-31T05:02:19;8.18;;;2.30;;
30185;SDS011;31152;49.190;8.122;2023-08-31T05:04:45;7.22;;;2.97;;
30185;SDS011;31152;49.190;8.122;2023-08-31T05:07:15;7.45;;;2.50;;
30185;SDS011;31152;49.190;8.122;2023-08-31T05:09:44;9.77;;;3.08;;
30185;SDS011;31152;49.190;8.122;2023-08-31T05:12:10;7.13;;;2.70;;
30185;SDS011;31152;49.190;8.122;2023-08-31T05:14:38;4.50;;;2.55;;
30185;SDS011;31152;49.190;8.122;2023-08-31T05:17:06;8.20;;;2.67;;
30185;SDS011;31152;49.190;8.122;2023-08-31T05:19:32;6.90;;;2.42;;
30185;SDS011;31152;49.190;8.122;2023-08-31T05:22:00;6.75;;;2.88;;
30185;SDS011;31152;49.190;8.122;2023-08-31T05:24:27;6.32;;;2.70;;
30185;SDS011;31152;49.190;8.122;2023-08-31T05:26:53;8.50;;;3.03;;
30185;SDS011;31152;49.190;8.122;2023-08-31T05:29:20;10.32;;;3.33;;
30185;SDS011;31152;49.190;8.122;2023-08-31T05:31:47;6.47;;;3.15;;
30185;SDS011;31152;49.190;8.122;2023-08-31T05:34:16;6.43;;;3.22;;
30185;SDS011;31152;49.190;8.122;2023-08-31T05:36:44;10.23;;;3.45;;
30185;SDS011;31152;49.190;8.122;2023-08-31T05:39:11;8.55;;;3.78;;
30185;SDS011;31152;49.190;8.122;2023-08-31T05:41:40;5.25;;;3.38;;
30185;SDS011;31152;49.190;8.122;2023-08-31T05:44:07;10.80;;;3.25;;
30185;SDS011;31152;49.190;8.122;2023-08-31T05:46:34;7.28;;;3.50;;
30185;SDS011;31152;49.190;8.122;2023-08-31T05:49:01;7.68;;;3.05;;
30185;SDS011;31152;49.190;8.122;2023-08-31T05:51:28;4.18;;;2.58;;
30185;SDS011;31152;49.190;8.122;2023-08-31T05:53:55;8.73;;;3.47;;
30185;SDS011;31152;49.190;8.122;2023-08-31T05:56:22;8.38;;;3.42;;
30185;SDS011;31152;49.190;8.122;2023-08-31T05:58:49;8.20;;;3.45;;
30185;SDS011;31152;49.190;8.122;2023-08-31T06:01:16;9.40;;;3.22;;
30185;SDS011;31152;49.190;8.122;2023-08-31T06:03:43;7.00;;;3.83;;
30185;SDS011;31152;49.190;8.122;2023-08-31T06:06:10;8.63;;;3.50;;
30185;SDS011;31152;49.190;8.122;2023-08-31T06:08:39;6.45;;;3.65;;
30185;SDS011;31152;49.190;8.122;2023-08-31T06:11:06;8.68;;;3.17;;
30185;SDS011;31152;49.190;8.122;2023-08-31T06:13:32;7.70;;;3.25;;
30185;SDS011;31152;49.190;8.122;2023-08-31T06:15:59;6.55;;;2.83;;
30185;SDS011;31152;49.190;8.122;2023-08-31T06:18:29;7.25;;;2.70;;
30185;SDS011;31152;49.190;8.122;2023-08-31T06:20:58;8.75;;;3.05;;
30185;SDS011;31152;49.190;8.122;2023-08-31T06:23:25;6.43;;;2.90;;
30185;SDS011;31152;49.190;8.122;2023-08-31T06:25:51;4.10;;;2.80;;
30185;SDS011;31152;49.190;8.122;2023-08-31T06:28:18;6.05;;;3.13;;
30185;SDS011;31152;49.190;8.122;2023-08-31T06:30:45;4.90;;;2.58;;
30185;SDS011;31152;49.190;8.122;2023-08-31T06:33:16;5.85;;;2.55;;
30185;SDS011;31152;49.190;8.122;2023-08-31T06:35:48;8.50;;;2.75;;
30185;SDS011;31152;49.190;8.122;2023-08-31T06:38:18;9.98;;;2.88;;
30185;SDS011;31152;49.190;8.122;2023-08-31T06:40:46;6.55;;;2.25;;
30185;SDS011;31152;49.190;8.122;2023-08-31T06:43:13;4.53;;;2.50;;
30185;SDS011;31152;49.190;8.122;2023-08-31T06:45:40;11.40;;;3.30;;
30185;SDS011;31152;49.190;8.122;2023-08-31T06:48:07;7.00;;;2.67;;
30185;SDS011;31152;49.190;8.122;2023-08-31T06:50:34;9.23;;;2.60;;
30185;SDS011;31152;49.190;8.122;2023-08-31T06:53:04;7.60;;;2.30;;
30185;SDS011;31152;49.190;8.122;2023-08-31T06:55:31;8.32;;;2.10;;
30185;SDS011;31152;49.190;8.122;2023-08-31T06:57:58;6.57;;;2.85;;
30185;SDS011;31152;49.190;8.122;2023-08-31T07:00:25;8.77;;;1.98;;
30185;SDS011;31152;49.190;8.122;2023-08-31T07:02:54;7.47;;;2.05;;
30185;SDS011;31152;49.190;8.122;2023-08-31T07:05:25;7.47;;;2.63;;
30185;SDS011;31152;49.190;8.122;2023-08-31T07:07:53;4.47;;;1.70;;
30185;SDS011;31152;49.190;8.122;2023-08-31T07:10:23;6.15;;;1.67;;
30185;SDS011;31152;49.190;8.122;2023-08-31T07:12:50;6.25;;;2.30;;
30185;SDS011;31152;49.190;8.122;2023-08-31T07:15:19;4.25;;;2.00;;
30185;SDS011;31152;49.190;8.122;2023-08-31T07:17:46;6.35;;;2.00;;
30185;SDS011;31152;49.190;8.122;2023-08-31T07:20:13;6.63;;;2.35;;
30185;SDS011;31152;49.190;8.122;2023-08-31T07:22:40;5.68;;;1.95;;
30185;SDS011;31152;49.190;8.122;2023-08-31T07:25:07;3.78;;;1.80;;
30185;SDS011;31152;49.190;8.122;2023-08-31T07:27:34;9.95;;;2.45;;
30185;SDS011;31152;49.190;8.122;2023-08-31T07:30:01;10.48;;;2.25;;
30185;SDS011;31152;49.190;8.122;2023-08-31T07:32:29;5.10;;;1.67;;
30185;SDS011;31152;49.190;8.122;2023-08-31T07:35:00;4.32;;;1.65;;
30185;SDS011;31152;49.190;8.122;2023-08-31T07:37:29;7.35;;;2.22;;
30185;SDS011;31152;49.190;8.122;2023-08-31T07:39:58;7.03;;;1.80;;
30185;SDS011;31152;49.190;8.122;2023-08-31T07:42:24;5.47;;;2.33;;
30185;SDS011;31152;49.190;8.122;2023-08-31T07:44:53;3.17;;;1.40;;
30185;SDS011;31152;49.190;8.122;2023-08-31T07:47:20;7.40;;;1.98;;
30185;SDS011;31152;49.190;8.122;2023-08-31T07:49:49;9.70;;;2.03;;
30185;SDS011;31152;49.190;8.122;2023-08-31T07:52:18;6.47;;;1.73;;
30185;SDS011;31152;49.190;8.122;2023-08-31T07:54:45;4.72;;;1.63;;
30185;SDS011;31152;49.190;8.122;2023-08-31T07:57:14;7.85;;;2.58;;
30185;SDS011;31152;49.190;8.122;2023-08-31T07:59:44;8.23;;;1.75;;
30185;SDS011;31152;49.190;8.122;2023-08-31T08:02:13;3.67;;;1.55;;
30185;SDS011;31152;49.190;8.122;2023-08-31T08:04:42;5.65;;;1.80;;
30185;SDS011;31152;49.190;8.122;2023-08-31T08:07:11;4.47;;;1.52;;
30185;SDS011;31152;49.190;8.122;2023-08-31T08:09:38;4.63;;;1.70;;
30185;SDS011;31152;49.190;8.122;2023-08-31T08:12:05;4.57;;;1.55;;
30185;SDS011;31152;49.190;8.122;2023-08-31T08:14:32;8.38;;;1.48;;
30185;SDS011;31152;49.190;8.122;2023-08-31T08:16:59;5.93;;;1.60;;
30185;SDS011;31152;49.190;8.122;2023-08-31T08:19:26;6.10;;;1.95;;
30185;SDS011;31152;49.190;8.122;2023-08-31T08:21:53;4.88;;;1.48;;
30185;SDS011;31152;49.190;8.122;2023-08-31T08:24:20;12.07;;;1.92;;
30185;SDS011;31152;49.190;8.122;2023-08-31T08:26:47;4.72;;;1.20;;
30185;SDS011;31152;49.190;8.122;2023-08-31T08:29:14;7.90;;;1.55;;
30185;SDS011;31152;49.190;8.122;2023-08-31T08:31:43;6.32;;;1.52;;
30185;SDS011;31152;49.190;8.122;2023-08-31T08:34:10;4.13;;;1.52;;
30185;SDS011;31152;49.190;8.122;2023-08-31T08:36:36;4.43;;;1.60;;
30185;SDS011;31152;49.190;8.122;2023-08-31T08:39:03;4.85;;;1.60;;
30185;SDS011;31152;49.190;8.122;2023-08-31T08:41:30;5.10;;;1.65;;
30185;SDS011;31152;49.190;8.122;2023-08-31T08:44:02;7.50;;;1.63;;
30185;SDS011;31152;49.190;8.122;2023-08-31T08:46:32;7.50;;;1.52;;
30185;SDS011;31152;49.190;8.122;2023-08-31T08:49:02;5.15;;;1.65;;
30185;SDS011;31152;49.190;8.122;2023-08-31T08:51:31;7.20;;;2.40;;
30185;SDS011;31152;49.190;8.122;2023-08-31T08:54:01;4.00;;;1.50;;
30185;SDS011;31152;49.190;8.122;2023-08-31T08:56:29;3.85;;;1.70;;
30185;SDS011;31152;49.190;8.122;2023-08-31T08:58:59;7.07;;;1.80;;
30185;SDS011;31152;49.190;8.122;2023-08-31T09:01:28;5.90;;;1.80;;
30185;SDS011;31152;49.190;8.122;2023-08-31T09:03:55;4.90;;;1.20;;
30185;SDS011;31152;49.190;8.122;2023-08-31T09:06:22;3.90;;;1.50;;
30185;SDS011;31152;49.190;8.122;2023-08-31T09:08:54;2.88;;;1.38;;
30185;SDS011;31152;49.190;8.122;2023-08-31T09:11:22;7.13;;;2.00;;
30185;SDS011;31152;49.190;8.122;2023-08-31T09:13:50;3.75;;;1.30;;
30185;SDS011;31152;49.190;8.122;2023-08-31T09:16:27;4.53;;;1.58;;
30185;SDS011;31152;49.190;8.122;2023-08-31T09:18:56;5.30;;;1.52;;
30185;SDS011;31152;49.190;8.122;2023-08-31T09:21:36;6.05;;;1.45;;
30185;SDS011;31152;49.190;8.122;2023-08-31T09:24:07;3.33;;;1.98;;
30185;SDS011;31152;49.190;8.122;2023-08-31T09:26:48;4.20;;;1.42;;
30185;SDS011;31152;49.190;8.122;2023-08-31T09:29:19;4.45;;;1.48;;
30185;SDS011;31152;49.190;8.122;2023-08-31T09:31:46;4.13;;;1.27;;
30185;SDS011;31152;49.190;8.122;2023-08-31T09:34:15;4.15;;;1.63;;
30185;SDS011;31152;49.190;8.122;2023-08-31T09:36:43;6.97;;;1.60;;
30185;SDS011;31152;49.190;8.122;2023-08-31T09:39:12;7.63;;;1.90;;
30185;SDS011;31152;49.190;8.122;2023-08-31T09:41:55;5.45;;;1.70;;
30185;SDS011;31152;49.190;8.122;2023-08-31T09:44:22;5.80;;;1.63;;
30185;SDS011;31152;49.190;8.122;2023-08-31T09:46:52;3.47;;;1.20;;
30185;SDS011;31152;49.190;8.122;2023-08-31T09:49:20;3.92;;;1.30;;
30185;SDS011;31152;49.190;8.122;2023-08-31T09:51:48;6.78;;;1.67;;
30185;SDS011;31152;49.190;8.122;2023-08-31T09:54:19;4.00;;;1.45;;
30185;SDS011;31152;49.190;8.122;2023-08-31T09:56:50;5.05;;;1.67;;
30185;SDS011;31152;49.190;8.122;2023-08-31T09:59:19;8.25;;;1.98;;
30185;SDS011;31152;49.190;8.122;2023-08-31T10:01:46;6.55;;;1.90;;
30185;SDS011;31152;49.190;8.122;2023-08-31T10:04:14;4.55;;;1.60;;
30185;SDS011;31152;49.190;8.122;2023-08-31T10:06:42;5.78;;;2.00;;
30185;SDS011;31152;49.190;8.122;2023-08-31T10:09:11;3.70;;;1.67;;
30185;SDS011;31152;49.190;8.122;2023-08-31T10:11:42;6.20;;;1.60;;
30185;SDS011;31152;49.190;8.122;2023-08-31T10:14:10;4.60;;;1.75;;
30185;SDS011;31152;49.190;8.122;2023-08-31T10:16:41;4.47;;;1.60;;
30185;SDS011;31152;49.190;8.122;2023-08-31T10:19:11;6.78;;;1.77;;
30185;SDS011;31152;49.190;8.122;2023-08-31T10:21:39;5.55;;;2.53;;
30185;SDS011;31152;49.190;8.122;2023-08-31T10:24:07;6.53;;;1.65;;
30185;SDS011;31152;49.190;8.122;2023-08-31T10:26:34;6.88;;;2.15;;
30185;SDS011;31152;49.190;8.122;2023-08-31T10:29:01;6.38;;;1.80;;
30185;SDS011;31152;49.190;8.122;2023-08-31T10:31:33;4.40;;;1.83;;
30185;SDS011;31152;49.190;8.122;2023-08-31T10:34:00;6.47;;;2.28;;
30185;SDS011;31152;49.190;8.122;2023-08-31T10:36:40;5.65;;;1.80;;
30185;SDS011;31152;49.190;8.122;2023-08-31T10:39:37;6.03;;;1.95;;
30185;SDS011;31152;49.190;8.122;2023-08-31T10:42:05;9.70;;;2.58;;
30185;SDS011;31152;49.190;8.122;2023-08-31T10:44:32;3.83;;;1.58;;
30185;SDS011;31152;49.190;8.122;2023-08-31T10:47:00;6.93;;;1.90;;
30185;SDS011;31152;49.190;8.122;2023-08-31T10:49:30;9.60;;;1.95;;
30185;SDS011;31152;49.190;8.122;2023-08-31T10:52:15;11.95;;;2.38;;
30185;SDS011;31152;49.190;8.122;2023-08-31T10:55:05;4.95;;;1.90;;
30185;SDS011;31152;49.190;8.122;2023-08-31T10:57:32;5.85;;;2.13;;
30185;SDS011;31152;49.190;8.122;2023-08-31T11:00:02;10.23;;;1.95;;
30185;SDS011;31152;49.190;8.122;2023-08-31T11:02:38;9.05;;;2.08;;
30185;SDS011;31152;49.190;8.122;2023-08-31T11:05:12;9.30;;;2.78;;
30185;SDS011;31152;49.190;8.122;2023-08-31T11:07:48;7.35;;;2.00;;
30185;SDS011;31152;49.190;8.122;2023-08-31T11:12:51;6.50;;;2.17;;
30185;SDS011;31152;49.190;8.122;2023-08-31T11:15:21;5.53;;;1.63;;
30185;SDS011;31152;49.190;8.122;2023-08-31T11:17:52;7.13;;;2.35;;
30185;SDS011;31152;49.190;8.122;2023-08-31T11:20:23;6.88;;;2.13;;
30185;SDS011;31152;49.190;8.122;2023-08-31T11:22:54;6.18;;;2.28;;
30185;SDS011;31152;49.190;8.122;2023-08-31T11:25:22;5.55;;;2.22;;
30185;SDS011;31152;49.190;8.122;2023-08-31T11:27:52;5.45;;;1.70;;
30185;SDS011;31152;49.190;8.122;2023-08-31T11:30:20;7.05;;;2.00;;
30185;SDS011;31152;49.190;8.122;2023-08-31T11:32:49;7.82;;;1.90;;
30185;SDS011;31152;49.190;8.122;2023-08-31T11:35:18;7.93;;;1.90;;
30185;SDS011;31152;49.190;8.122;2023-08-31T11:37:49;8.15;;;2.00;;
30185;SDS011;31152;49.190;8.122;2023-08-31T11:40:17;8.07;;;2.00;;
30185;SDS011;31152;49.190;8.122;2023-08-31T11:42:44;6.60;;;1.95;;
30185;SDS011;31152;49.190;8.122;2023-08-31T11:45:13;5.22;;;1.92;;
30185;SDS011;31152;49.190;8.122;2023-08-31T11:47:41;7.85;;;2.15;;
30185;SDS011;31152;49.190;8.122;2023-08-31T11:50:10;8.40;;;2.40;;
30185;SDS011;31152;49.190;8.122;2023-08-31T11:52:41;5.60;;;1.90;;
30185;SDS011;31152;49.190;8.122;2023-08-31T11:55:12;6.15;;;1.63;;
30185;SDS011;31152;49.190;8.122;2023-08-31T11:57:40;7.32;;;2.10;;
30185;SDS011;31152;49.190;8.122;2023-08-31T12:00:16;10.40;;;2.10;;
30185;SDS011;31152;49.190;8.122;2023-08-31T12:02:45;5.90;;;1.98;;
30185;SDS011;31152;49.190;8.122;2023-08-31T12:05:15;6.65;;;2.20;;
30185;SDS011;31152;49.190;8.122;2023-08-31T12:07:41;8.43;;;2.20;;
30185;SDS011;31152;49.190;8.122;2023-08-31T12:10:08;6.47;;;2.20;;
30185;SDS011;31152;49.190;8.122;2023-08-31T12:12:36;7.28;;;1.80;;
30185;SDS011;31152;49.190;8.122;2023-08-31T12:15:03;7.03;;;2.00;;
30185;SDS011;31152;49.190;8.122;2023-08-31T12:17:32;7.68;;;2.30;;
30185;SDS011;31152;49.190;8.122;2023-08-31T12:20:18;4.65;;;1.90;;
30185;SDS011;31152;49.190;8.122;2023-08-31T12:22:50;6.72;;;1.83;;
30185;SDS011;31152;49.190;8.122;2023-08-31T12:25:20;7.75;;;2.10;;
30185;SDS011;31152;49.190;8.122;2023-08-31T12:27:48;7.13;;;1.98;;
30185;SDS011;31152;49.190;8.122;2023-08-31T12:30:18;7.88;;;2.15;;
30185;SDS011;31152;49.190;8.122;2023-08-31T12:32:47;8.13;;;2.10;;
30185;SDS011;31152;49.190;8.122;2023-08-31T12:35:14;5.93;;;1.92;;
30185;SDS011;31152;49.190;8.122;2023-08-31T12:37:43;3.55;;;1.67;;
30185;SDS011;31152;49.190;8.122;2023-08-31T12:40:10;9.00;;;2.42;;
30185;SDS011;31152;49.190;8.122;2023-08-31T12:42:37;5.88;;;1.80;;
30185;SDS011;31152;49.190;8.122;2023-08-31T12:45:06;8.15;;;2.08;;
30185;SDS011;31152;49.190;8.122;2023-08-31T12:47:34;8.57;;;2.30;;
30185;SDS011;31152;49.190;8.122;2023-08-31T12:50:01;5.43;;;2.22;;
30185;SDS011;31152;49.190;8.122;2023-08-31T12:52:29;5.68;;;2.55;;
30185;SDS011;31152;49.190;8.122;2023-08-31T12:54:56;11.80;;;2.20;;
30185;SDS011;31152;49.190;8.122;2023-08-31T12:57:22;9.65;;;2.00;;
30185;SDS011;31152;49.190;8.122;2023-08-31T12:59:51;6.65;;;2.28;;
30185;SDS011;31152;49.190;8.122;2023-08-31T13:02:18;8.45;;;2.13;;
30185;SDS011;31152;49.190;8.122;2023-08-31T13:04:46;5.85;;;2.42;;
30185;SDS011;31152;49.190;8.122;2023-08-31T13:07:15;4.32;;;1.95;;
30185;SDS011;31152;49.190;8.122;2023-08-31T13:09:42;9.15;;;2.15;;
30185;SDS011;31152;49.190;8.122;2023-08-31T13:12:09;6.55;;;2.15;;
30185;SDS011;31152;49.190;8.122;2023-08-31T13:14:35;6.60;;;1.95;;
30185;SDS011;31152;49.190;8.122;2023-08-31T13:17:05;6.78;;;2.60;;
30185;SDS011;31152;49.190;8.122;2023-08-31T13:19:34;6.60;;;2.15;;
30185;SDS011;31152;49.190;8.122;2023-08-31T13:22:01;4.43;;;1.83;;
30185;SDS011;31152;49.190;8.122;2023-08-31T13:24:30;6.38;;;1.80;;
30185;SDS011;31152;49.190;8.122;2023-08-31T13:26:56;3.97;;;2.30;;
30185;SDS011;31152;49.190;8.122;2023-08-31T13:29:23;8.20;;;1.98;;
30185;SDS011;31152;49.190;8.122;2023-08-31T13:31:50;8.00;;;2.20;;
30185;SDS011;31152;49.190;8.122;2023-08-31T13:34:17;6.88;;;2.13;;
30185;SDS011;31152;49.190;8.122;2023-08-31T13:36:44;6.15;;;1.92;;
30185;SDS011;31152;49.190;8.122;2023-08-31T13:39:12;8.20;;;2.08;;
30185;SDS011;31152;49.190;8.122;2023-08-31T13:41:42;6.13;;;1.85;;
30185;SDS011;31152;49.190;8.122;2023-08-31T13:44:09;9.50;;;2.40;;
30185;SDS011;31152;49.190;8.122;2023-08-31T13:46:36;10.25;;;2.60;;
30185;SDS011;31152;49.190;8.122;2023-08-31T13:49:06;8.15;;;2.67;;
30185;SDS011;31152;49.190;8.122;2023-08-31T13:51:32;12.43;;;1.92;;
30185;SDS011;31152;49.190;8.122;2023-08-31T13:54:01;7.00;;;1.70;;
30185;SDS011;31152;49.190;8.122;2023-08-31T13:56:31;6.72;;;2.28;;
30185;SDS011;31152;49.190;8.122;2023-08-31T13:59:01;8.93;;;2.03;;
30185;SDS011;31152;49.190;8.122;2023-08-31T14:01:27;6.38;;;2.03;;
30185;SDS011;31152;49.190;8.122;2023-08-31T14:03:54;5.25;;;2.28;;
30185;SDS011;31152;49.190;8.122;2023-08-31T14:06:21;6.38;;;1.98;;
30185;SDS011;31152;49.190;8.122;2023-08-31T14:08:48;6.85;;;2.17;;
30185;SDS011;31152;49.190;8.122;2023-08-31T14:11:20;7.43;;;2.00;;
30185;SDS011;31152;49.190;8.122;2023-08-31T14:13:47;9.10;;;2.30;;
30185;SDS011;31152;49.190;8.122;2023-08-31T14:16:15;8.10;;;2.50;;
30185;SDS011;31152;49.190;8.122;2023-08-31T14:18:42;5.50;;;1.98;;
30185;SDS011;31152;49.190;8.122;2023-08-31T14:21:14;7.97;;;2.45;;
30185;SDS011;31152;49.190;8.122;2023-08-31T14:23:41;7.43;;;2.25;;
30185;SDS011;31152;49.190;8.122;2023-08-31T14:26:08;8.40;;;2.40;;
30185;SDS011;31152;49.190;8.122;2023-08-31T14:28:37;7.70;;;2.53;;
30185;SDS011;31152;49.190;8.122;2023-08-31T14:31:08;5.88;;;1.98;;
30185;SDS011;31152;49.190;8.122;2023-08-31T14:33:35;6.68;;;2.20;;
30185;SDS011;31152;49.190;8.122;2023-08-31T14:36:02;9.48;;;2.22;;
30185;SDS011;31152;49.190;8.122;2023-08-31T14:38:32;6.88;;;2.35;;
30185;SDS011;31152;49.190;8.122;2023-08-31T14:40:58;9.70;;;2.40;;
30185;SDS011;31152;49.190;8.122;2023-08-31T14:43:28;6.55;;;1.95;;
30185;SDS011;31152;49.190;8.122;2023-08-31T14:45:57;7.60;;;2.53;;
30185;SDS011;31152;49.190;8.122;2023-08-31T14:48:24;6.25;;;2.20;;
30185;SDS011;31152;49.190;8.122;2023-08-31T14:50:51;10.52;;;2.35;;
30185;SDS011;31152;49.190;8.122;2023-08-31T14:53:20;8.32;;;1.88;;
30185;SDS011;31152;49.190;8.122;2023-08-31T14:55:49;6.40;;;2.30;;
30185;SDS011;31152;49.190;8.122;2023-08-31T14:58:17;5.90;;;2.00;;
30185;SDS011;31152;49.190;8.122;2023-08-31T15:00:44;11.68;;;2.38;;